createdAt,value
2023-01-22T00:02:51.179Z,102708.09
2023-01-22T00:06:00.238Z,102705.66
2023-01-22T00:09:04.679Z,102698.28
2023-01-22T00:12:09.205Z,102712.97
2023-01-22T00:15:13.512Z,102712.25
2023-01-22T00:18:17.998Z,102713.88
2023-01-22T00:21:22.401Z,102717.91
2023-01-22T00:24:26.686Z,102713.22
2023-01-22T00:27:30.669Z,102712.66
2023-01-22T00:30:34.937Z,102708.19
2023-01-22T00:33:44.596Z,102700.28
2023-01-22T00:36:48.570Z,102706.44
2023-01-22T00:39:55.655Z,102708.22
2023-01-22T00:43:01.747Z,102705.06
2023-01-22T00:46:08.957Z,102699.22
2023-01-22T00:49:20.800Z,102702.00
2023-01-22T00:52:27.013Z,102703.38
2023-01-22T00:55:39.381Z,102702.22
2023-01-22T00:58:46.397Z,102704.59
2023-01-22T01:16:31.124Z,102721.09
2023-01-22T01:19:35.471Z,102716.28
2023-01-22T01:22:39.701Z,102708.22
2023-01-22T01:25:43.903Z,102716.91
2023-01-22T01:28:48.612Z,102723.31
2023-01-22T01:31:55.262Z,102728.56
2023-01-22T01:34:59.630Z,102730.47
2023-01-22T01:38:04.248Z,102748.13
2023-01-22T01:41:09.260Z,102747.22
2023-01-22T01:44:16.298Z,102747.56
2023-01-22T01:47:31.685Z,102741.41
2023-01-22T01:50:39.012Z,102736.19
2023-01-22T01:53:44.572Z,102725.50
2023-01-22T01:56:56.117Z,102729.19
2023-01-22T02:00:01.766Z,102721.94
2023-01-22T02:03:07.027Z,102717.31
2023-01-22T02:06:15.931Z,102723.00
2023-01-22T02:09:24.908Z,102712.69
2023-01-22T02:12:33.786Z,102708.91
2023-01-22T02:15:40.497Z,102703.28
2023-01-22T02:18:44.539Z,102698.78
2023-01-22T02:21:48.519Z,102701.88
2023-01-22T02:24:54.101Z,102706.69
2023-01-22T02:28:08.898Z,102698.63
2023-01-22T02:31:12.500Z,102697.41
2023-01-22T02:34:16.650Z,102703.25
2023-01-22T02:37:23.618Z,102698.81
2023-01-22T02:40:30.884Z,102698.41
2023-01-22T02:43:36.002Z,102644.88
2023-01-22T02:46:40.316Z,102701.03
2023-01-22T02:49:44.472Z,102692.75
2023-01-22T02:52:48.763Z,102700.66
2023-01-22T02:55:53.077Z,102697.53
2023-01-22T02:58:57.127Z,102700.00
2023-01-22T03:02:01.497Z,102703.06
2023-01-22T03:05:06.028Z,102698.00
2023-01-22T03:08:09.753Z,102693.91
2023-01-22T03:11:14.116Z,102685.53
2023-01-22T03:14:38.467Z,102688.97
2023-01-22T03:18:01.204Z,102701.03
2023-01-22T03:21:17.651Z,102690.38
2023-01-22T03:24:21.797Z,102702.66
2023-01-22T03:27:27.064Z,102708.34
2023-01-22T03:30:31.929Z,102714.88
2023-01-22T03:33:36.520Z,102708.50
2023-01-22T03:36:44.499Z,102699.91
2023-01-22T03:39:49.443Z,102696.69
2023-01-22T03:43:01.282Z,102694.31
2023-01-22T03:46:10.833Z,102688.72
2023-01-22T03:49:18.246Z,102688.78
2023-01-22T03:52:22.436Z,102685.16
2023-01-22T03:55:29.907Z,102676.25
2023-01-22T03:58:34.391Z,102669.63
2023-01-22T04:01:38.687Z,102662.63
2023-01-22T04:04:45.800Z,102664.94
2023-01-22T04:07:51.732Z,102655.63
2023-01-22T04:11:01.611Z,102660.25
2023-01-22T04:14:08.435Z,102656.13
2023-01-22T04:17:15.001Z,102629.28
2023-01-22T04:20:28.198Z,102657.22
2023-01-22T04:23:52.329Z,102655.66
2023-01-22T04:26:58.329Z,102645.53
2023-01-22T04:30:02.576Z,102649.53
2023-01-22T04:33:07.267Z,102648.47
2023-01-22T04:36:34.931Z,102637.78
2023-01-22T04:39:38.975Z,102640.69
2023-01-22T04:42:43.136Z,102636.91
2023-01-22T04:45:47.763Z,102632.53
2023-01-22T04:48:52.254Z,102636.44
2023-01-22T04:51:57.172Z,102633.47
2023-01-22T04:55:03.177Z,102641.66
2023-01-22T04:58:18.578Z,102651.69
2023-01-22T05:01:22.797Z,102656.06
2023-01-22T05:04:27.573Z,102637.25
2023-01-22T05:07:31.982Z,102640.41
2023-01-22T05:10:36.829Z,102632.22
2023-01-22T05:13:43.067Z,102630.72
2023-01-22T05:16:47.992Z,102633.13
2023-01-22T05:19:51.884Z,102629.34
2023-01-22T05:22:58.148Z,102627.16
2023-01-22T05:26:03.808Z,102629.03
2023-01-22T05:29:20.167Z,102631.00
2023-01-22T05:32:50.363Z,102641.41
2023-01-22T05:35:58.279Z,102640.41
2023-01-22T05:39:04.810Z,102650.59
2023-01-22T05:42:14.713Z,102640.88
2023-01-22T05:45:23.700Z,102642.22
2023-01-22T05:48:46.772Z,102641.50
2023-01-22T05:51:55.515Z,102633.38
2023-01-22T05:55:00.908Z,102635.88
2023-01-22T05:58:09.665Z,102632.69
2023-01-22T06:01:14.255Z,102627.13
2023-01-22T06:04:23.855Z,102624.53
2023-01-22T06:07:28.099Z,102624.84
2023-01-22T06:10:32.709Z,102630.97
2023-01-22T06:13:38.827Z,102636.03
2023-01-22T06:16:53.345Z,102629.88
2023-01-22T06:20:12.571Z,102637.00
2023-01-22T06:23:17.182Z,102622.34
2023-01-22T06:26:28.399Z,102620.94
2023-01-22T06:29:32.657Z,102622.69
2023-01-22T06:32:37.363Z,102621.13
2023-01-22T06:35:46.685Z,102619.06
2023-01-22T06:38:50.895Z,102615.84
2023-01-22T06:42:07.087Z,102618.38
2023-01-22T06:45:16.167Z,102614.22
2023-01-22T06:48:34.308Z,102602.81
2023-01-22T06:51:41.350Z,102611.59
2023-01-22T06:54:49.227Z,102600.78
2023-01-22T06:57:55.899Z,102603.19
2023-01-22T07:01:06.660Z,102599.22
2023-01-22T07:04:16.975Z,102598.66
2023-01-22T07:07:24.177Z,102598.09
2023-01-22T07:10:29.075Z,102611.03
2023-01-22T07:13:35.858Z,102611.41
2023-01-22T07:16:43.155Z,102610.38
2023-01-22T07:19:47.361Z,102616.97
2023-01-22T07:22:54.648Z,102613.19
2023-01-22T07:26:01.757Z,102623.69
2023-01-22T07:29:06.466Z,102628.59
2023-01-22T07:32:12.011Z,102627.75
2023-01-22T07:35:16.176Z,102613.06
2023-01-22T07:38:29.360Z,102609.53
2023-01-22T07:41:37.689Z,102605.72
2023-01-22T07:44:51.290Z,102601.38
2023-01-22T07:47:59.632Z,102597.38
2023-01-22T07:51:04.557Z,102598.34
2023-01-22T07:54:11.470Z,102601.00
2023-01-22T07:57:23.109Z,102596.69
2023-01-22T08:00:38.279Z,102603.19
2023-01-22T08:03:49.335Z,102597.59
2023-01-22T08:06:59.119Z,102608.88
2023-01-22T08:10:12.747Z,102611.44
2023-01-22T08:13:17.872Z,102606.22
2023-01-22T08:16:23.049Z,102610.84
2023-01-22T08:19:30.278Z,102615.56
2023-01-22T08:22:34.632Z,102630.00
2023-01-22T08:25:38.794Z,102626.84
2023-01-22T08:28:43.101Z,102624.28
2023-01-22T08:31:47.142Z,102616.06
2023-01-22T08:34:55.482Z,102615.63
2023-01-22T08:38:01.054Z,102619.28
2023-01-22T08:41:07.485Z,102638.66
2023-01-22T08:44:14.536Z,102633.78
2023-01-22T08:47:18.555Z,102629.78
2023-01-22T08:50:22.642Z,102633.91
2023-01-22T08:53:27.435Z,102633.19
2023-01-22T08:56:32.905Z,102634.81
2023-01-22T08:59:37.710Z,102630.44
2023-01-22T09:02:42.439Z,102639.22
2023-01-22T09:05:46.678Z,102647.50
2023-01-22T09:08:50.872Z,102646.25
2023-01-22T09:11:55.274Z,102646.75
2023-01-22T09:14:59.437Z,102649.06
2023-01-22T09:18:03.842Z,102655.47
2023-01-22T09:21:09.232Z,102643.22
2023-01-22T09:24:13.587Z,102638.13
2023-01-22T09:27:18.326Z,102639.44
2023-01-22T09:30:23.237Z,102643.34
2023-01-22T09:33:27.492Z,102643.88
2023-01-22T09:36:33.973Z,102644.75
2023-01-22T09:39:39.108Z,102649.22
2023-01-22T09:42:46.714Z,102657.72
2023-01-22T09:49:34.129Z,102662.66
2023-01-22T09:52:39.297Z,102658.38
2023-01-22T09:55:48.163Z,102649.28
2023-01-22T09:58:53.160Z,102648.69
2023-01-22T10:01:58.427Z,102648.47
2023-01-22T10:05:19.381Z,102652.72
2023-01-22T10:08:34.579Z,102661.72
2023-01-22T10:11:38.755Z,102669.78
2023-01-22T10:14:43.799Z,102659.13
2023-01-22T10:17:48.828Z,102661.81
2023-01-22T10:20:53.989Z,102659.59
2023-01-22T10:23:59.670Z,102672.72
2023-01-22T10:27:16.552Z,102673.34
2023-01-22T10:30:25.685Z,102679.66
2023-01-22T10:33:39.704Z,102667.25
2023-01-22T10:36:51.601Z,102658.53
2023-01-22T10:40:01.756Z,102658.63
2023-01-22T10:43:14.787Z,102654.47
2023-01-22T10:51:01.735Z,102644.34
2023-01-22T10:54:07.327Z,102648.56
2023-01-22T10:57:22.540Z,102644.13
2023-01-22T11:04:23.225Z,102636.81
2023-01-22T11:07:32.876Z,102640.53
2023-01-22T11:10:41.522Z,102637.00
2023-01-22T11:13:56.280Z,102640.00
2023-01-22T11:17:06.061Z,102645.00
2023-01-22T11:20:18.073Z,102638.56
2023-01-22T11:23:40.851Z,102632.41
2023-01-22T11:26:46.792Z,102639.22
2023-01-22T11:30:09.665Z,102638.44
2023-01-22T11:33:19.341Z,102647.31
2023-01-22T11:36:29.456Z,102643.88
2023-01-22T11:39:54.527Z,102644.59
2023-01-22T11:43:03.214Z,102655.63
2023-01-22T11:46:28.653Z,102655.63
2023-01-22T11:49:47.703Z,102644.38
2023-01-22T11:52:53.324Z,102652.47
2023-01-22T11:55:57.386Z,102656.75
2023-01-22T11:59:05.643Z,102656.38
2023-01-22T12:02:17.206Z,102658.94
2023-01-22T12:05:24.520Z,102663.72
2023-01-22T12:08:40.312Z,102655.41
2023-01-22T12:11:50.047Z,102659.53
2023-01-22T12:15:27.898Z,102652.59
2023-01-22T12:18:35.476Z,102667.44
2023-01-22T12:21:49.458Z,102665.16
2023-01-22T12:25:00.680Z,102665.50
2023-01-22T12:28:16.723Z,102680.03
2023-01-22T12:31:26.379Z,102674.97
2023-01-22T12:34:42.289Z,102671.84
2023-01-22T12:37:51.401Z,102671.19
2023-01-22T12:41:22.805Z,102663.13
2023-01-22T12:44:36.360Z,102653.69
2023-01-22T12:47:51.403Z,102660.06
2023-01-22T12:50:58.232Z,102654.34
2023-01-22T12:54:11.126Z,102660.63
2023-01-22T12:57:23.905Z,102651.31
2023-01-22T13:00:39.843Z,102655.88
2023-01-22T13:03:44.044Z,102648.72
2023-01-22T13:06:50.534Z,102650.78
2023-01-22T13:10:30.369Z,102650.78
2023-01-22T13:13:40.812Z,102649.97
2023-01-22T13:17:06.892Z,102657.44
2023-01-22T13:20:21.273Z,102656.13
2023-01-22T13:23:25.182Z,102661.09
2023-01-22T13:26:31.082Z,102662.41
2023-01-22T13:29:43.870Z,102660.31
2023-01-22T13:32:47.366Z,102670.13
2023-01-22T13:35:51.462Z,102667.84
2023-01-22T13:42:56.787Z,102669.94
2023-01-22T13:46:04.255Z,102662.66
2023-01-22T13:49:22.843Z,102668.94
2023-01-22T13:52:29.209Z,102672.44
2023-01-22T13:55:34.575Z,102669.66
2023-01-22T13:58:48.462Z,102646.13
2023-01-22T14:01:53.281Z,102656.13
2023-01-22T14:04:56.996Z,102652.97
2023-01-22T14:08:08.281Z,102656.28
2023-01-22T14:11:12.297Z,102651.97
2023-01-22T14:14:20.192Z,102657.59
2023-01-22T14:17:33.639Z,102655.09
2023-01-22T14:20:48.112Z,102644.19
2023-01-22T14:23:55.234Z,102639.41
2023-01-22T14:26:59.663Z,102639.34
2023-01-22T14:30:03.891Z,102646.69
2023-01-22T14:33:08.333Z,102639.69
2023-01-22T14:36:12.619Z,102636.34
2023-01-22T14:39:16.848Z,102636.59
2023-01-22T14:46:09.736Z,102624.47
2023-01-22T14:49:14.031Z,102629.66
2023-01-22T14:52:17.963Z,102624.47
2023-01-22T14:55:22.512Z,102622.47
2023-01-22T14:58:26.783Z,102619.50
2023-01-22T15:01:30.910Z,102622.09
2023-01-22T15:04:36.679Z,102628.47
2023-01-22T15:07:40.626Z,102634.63
2023-01-22T15:10:45.092Z,102640.19
2023-01-22T15:13:50.239Z,102640.00
2023-01-22T15:16:53.916Z,102633.97
2023-01-22T15:19:58.094Z,102633.69
2023-01-22T15:25:21.105Z,102628.06
2023-01-22T15:28:25.277Z,102605.25
2023-01-22T15:31:29.778Z,102611.34
2023-01-22T15:34:33.786Z,102611.25
2023-01-22T15:37:38.209Z,102607.47
2023-01-22T15:40:42.521Z,102613.94
2023-01-22T15:43:51.511Z,102619.31
2023-01-22T15:46:58.064Z,102618.53
2023-01-22T15:50:07.475Z,102615.19
2023-01-22T15:53:11.669Z,102627.41
2023-01-22T15:56:15.938Z,102603.09
2023-01-22T15:59:20.604Z,102603.38
2023-01-22T16:02:24.773Z,102608.03
2023-01-22T16:05:31.833Z,102613.59
2023-01-22T16:08:36.067Z,102611.81
2023-01-22T16:11:40.352Z,102610.75
2023-01-22T16:14:44.363Z,102618.19
2023-01-22T16:17:50.936Z,102614.59
2023-01-22T16:21:06.206Z,102614.81
2023-01-22T16:24:11.145Z,102609.44
2023-01-22T16:27:15.345Z,102608.81
2023-01-22T16:30:19.791Z,102603.22
2023-01-22T16:33:28.976Z,102601.19
2023-01-22T16:36:33.978Z,102583.78
2023-01-22T16:39:38.028Z,102591.78
2023-01-22T16:42:57.975Z,102595.06
2023-01-22T16:46:02.356Z,102597.53
2023-01-22T16:52:51.518Z,102611.63
2023-01-22T16:56:01.168Z,102626.44
2023-01-22T16:59:08.103Z,102628.47
2023-01-22T17:02:19.955Z,102640.09
2023-01-22T17:05:24.546Z,102631.97
2023-01-22T17:08:36.454Z,102627.34
2023-01-22T17:11:50.369Z,102627.09
2023-01-22T17:14:57.380Z,102624.53
2023-01-22T17:18:07.336Z,102620.09
2023-01-22T17:21:13.330Z,102614.03
2023-01-22T17:24:17.735Z,102606.44
2023-01-22T17:27:22.519Z,102611.09
2023-01-22T17:30:27.109Z,102609.00
2023-01-22T17:33:31.511Z,102610.97
2023-01-22T17:36:44.196Z,102602.56
2023-01-22T17:39:51.680Z,102598.16
2023-01-22T17:42:57.449Z,102596.16
2023-01-22T17:46:10.894Z,102585.19
2023-01-22T17:49:42.109Z,102582.56
2023-01-22T17:52:49.357Z,102581.66
2023-01-22T17:55:55.713Z,102575.69
2023-01-22T17:59:03.984Z,102567.91
2023-01-22T18:02:08.197Z,102569.84
2023-01-22T18:05:12.458Z,102566.44
2023-01-22T18:08:18.164Z,102562.63
2023-01-22T18:11:24.992Z,102559.50
2023-01-22T18:14:34.827Z,102565.00
2023-01-22T18:17:38.529Z,102569.81
2023-01-22T18:20:46.172Z,102564.09
2023-01-22T18:23:53.648Z,102567.63
2023-01-22T18:27:01.626Z,102566.19
2023-01-22T18:30:08.467Z,102554.75
2023-01-22T18:33:18.475Z,102559.13
2023-01-22T18:36:26.842Z,102551.81
2023-01-22T18:39:32.127Z,102544.19
2023-01-22T18:42:36.302Z,102547.72
2023-01-22T18:45:41.310Z,102545.63
2023-01-22T18:48:45.955Z,102551.63
2023-01-22T18:51:53.349Z,102554.34
2023-01-22T18:54:57.650Z,102538.19
2023-01-22T18:58:07.529Z,102541.91
2023-01-22T19:01:21.055Z,102545.59
2023-01-22T19:04:26.286Z,102542.56
2023-01-22T19:07:30.793Z,102533.97
2023-01-22T19:10:35.160Z,102530.06
2023-01-22T19:13:40.712Z,102533.38
2023-01-22T19:16:47.803Z,102528.34
2023-01-22T19:19:52.899Z,102525.69
2023-01-22T19:23:01.199Z,102520.31
2023-01-22T19:26:34.878Z,102513.44
2023-01-22T19:29:41.632Z,102520.53
2023-01-22T19:32:46.226Z,102521.47
2023-01-22T19:35:50.700Z,102513.38
2023-01-22T19:38:55.021Z,102515.84
2023-01-22T19:42:02.706Z,102511.50
2023-01-22T19:45:07.647Z,102514.69
2023-01-22T19:48:13.568Z,102510.84
2023-01-22T19:51:23.055Z,102522.78
2023-01-22T19:54:27.822Z,102513.50
2023-01-22T19:57:35.130Z,102516.47
2023-01-22T20:00:39.296Z,102517.91
2023-01-22T20:03:42.930Z,102515.50
2023-01-22T20:06:49.132Z,102512.06
2023-01-22T20:09:55.107Z,102517.78
2023-01-22T20:12:59.671Z,102520.28
2023-01-22T20:16:04.272Z,102504.63
2023-01-22T20:19:07.722Z,102507.78
2023-01-22T20:22:11.983Z,102506.06
2023-01-22T20:25:16.867Z,102505.66
2023-01-22T20:28:21.868Z,102501.84
2023-01-22T20:31:26.211Z,102492.72
2023-01-22T20:34:32.461Z,102494.72
2023-01-22T20:37:38.517Z,102494.88
2023-01-22T20:40:46.874Z,102493.81
2023-01-22T20:43:51.546Z,102483.59
2023-01-22T20:46:57.613Z,102484.94
2023-01-22T20:50:01.753Z,102484.38
2023-01-22T20:53:07.182Z,102489.78
2023-01-22T20:56:13.186Z,102491.22
2023-01-22T20:59:19.014Z,102487.03
2023-01-22T21:02:25.302Z,102484.78
2023-01-22T21:05:30.387Z,102479.13
2023-01-22T21:08:35.231Z,102466.69
2023-01-22T21:11:40.631Z,102472.50
2023-01-22T21:14:44.350Z,102469.72
2023-01-22T21:17:48.442Z,102462.06
2023-01-22T21:20:52.597Z,102459.44
2023-01-22T21:24:02.243Z,102449.47
2023-01-22T21:27:06.217Z,102442.22
2023-01-22T21:30:15.689Z,102433.91
2023-01-22T21:33:22.536Z,102436.31
2023-01-22T21:36:34.076Z,102425.44
2023-01-22T21:39:40.359Z,102433.38
2023-01-22T21:43:06.934Z,102414.44
2023-01-22T21:46:27.799Z,102418.38
2023-01-22T21:49:38.145Z,102432.34
2023-01-22T21:52:46.028Z,102421.00
2023-01-22T21:55:54.494Z,102431.00
2023-01-22T21:59:01.247Z,102417.41
2023-01-22T22:02:09.211Z,102425.47
2023-01-22T22:05:18.430Z,102422.66
2023-01-22T22:09:46.722Z,102413.88
2023-01-22T22:13:28.350Z,102403.88
2023-01-22T22:20:42.401Z,102398.53
2023-01-22T22:32:29.574Z,102388.94
2023-01-22T22:36:17.474Z,102379.28
2023-01-22T22:40:29.935Z,102389.59
2023-01-22T22:53:58.860Z,102399.47
2023-01-22T22:57:38.293Z,102395.91
2023-01-22T23:05:12.377Z,102367.94
2023-01-22T23:08:27.003Z,102368.94
2023-01-22T23:11:32.915Z,102366.31
2023-01-22T23:14:40.451Z,102366.22
2023-01-22T23:17:44.210Z,102361.81
2023-01-22T23:20:47.683Z,102366.22
2023-01-22T23:23:53.875Z,102361.09
2023-01-22T23:27:00.556Z,102365.19
2023-01-22T23:30:07.718Z,102364.91
2023-01-22T23:33:12.107Z,102374.28
2023-01-22T23:36:23.122Z,102375.47
2023-01-22T23:39:30.500Z,102374.41
2023-01-22T23:42:37.494Z,102367.75
2023-01-22T23:45:41.561Z,102350.56
2023-01-22T23:48:47.419Z,102349.34
2023-01-22T23:51:51.443Z,102353.63
2023-01-22T23:54:55.726Z,102352.34
2023-01-22T23:58:05.386Z,102362.91
